Time;durP1;ratioP1;P1;durP2;ratioP2;P2;SDS_P1;SDS_P2;PMS_P1;PMS_P2;Temp;Humidity;BMP_temperature;BMP_pressure;BME280_temperature;BME280_humidity;BME280_pressure;Samples;Min_cycle;Max_cycle;Signal;HPM_P1;HPM_P2
2023/04/11 02:54:16;;;;;;;12.00;7.60;;;;;;;9.46;84.76;99053.92;107103;1298;544773;-46
2023/04/11 02:56:42;;;;;;;12.60;8.00;;;;;;;9.42;84.60;99052.92;107425;1312;22234;-43
2023/04/11 02:59:07;;;;;;;13.00;8.30;;;;;;;9.39;84.82;99051.48;107413;1312;22392;-43
2023/04/11 03:01:33;;;;;;;12.60;8.50;;;;;;;9.38;84.62;99056.98;107439;1312;22261;-43
2023/04/11 03:03:58;;;;;;;15.80;8.90;;;;;;;9.37;85.08;99057.38;107436;1312;22238;-43
2023/04/11 03:06:25;;;;;;;13.10;8.20;;;;;;;9.35;84.92;99058.02;107422;1312;22889;-43
2023/04/11 03:08:51;;;;;;;12.40;8.80;;;;;;;9.34;85.02;99055.10;107584;1310;115409;-43
2023/04/11 03:11:17;;;;;;;21.90;8.60;;;;;;;9.33;85.11;99056.02;107876;1308;22421;-42
2023/04/11 03:13:42;;;;;;;13.00;8.50;;;;;;;9.28;85.37;99048.26;107851;1308;22230;-43
2023/04/11 03:16:08;;;;;;;14.80;9.30;;;;;;;9.24;85.55;99044.63;107858;1308;22384;-43
2023/04/11 03:18:33;;;;;;;17.60;8.90;;;;;;;9.21;85.89;99045.10;107907;1308;22224;-45
2023/04/11 03:20:59;;;;;;;15.90;9.80;;;;;;;9.17;85.88;99046.19;107856;1308;23114;-44
2023/04/11 03:23:24;;;;;;;13.90;9.90;;;;;;;9.14;86.06;99045.46;107851;1308;22287;-43
2023/04/11 03:25:50;;;;;;;18.50;9.50;;;;;;;9.10;86.29;99045.48;107883;1308;22402;-41
2023/04/11 03:28:16;;;;;;;15.50;10.10;;;;;;;9.09;86.49;99052.05;107862;1308;22351;-43
2023/04/11 03:30:41;;;;;;;20.90;10.30;;;;;;;9.06;86.63;99045.04;107866;1308;22280;-42
2023/04/11 03:33:07;;;;;;;19.00;11.00;;;;;;;9.01;86.60;99046.15;107864;1308;22415;-44
2023/04/11 03:35:33;;;;;;;22.00;10.40;;;;;;;8.98;86.88;99042.98;107868;1308;22418;-41
2023/04/11 03:37:58;;;;;;;15.00;10.30;;;;;;;8.97;87.00;99045.48;107848;1308;22227;-40
2023/04/11 03:40:24;;;;;;;24.10;11.30;;;;;;;8.95;86.87;99042.81;107857;1308;22945;-44
2023/04/11 03:42:49;;;;;;;22.30;10.40;;;;;;;8.89;87.55;99036.48;107881;1308;22320;-42
2023/04/11 03:45:15;;;;;;;16.90;10.30;;;;;;;8.88;87.44;99036.19;107699;1308;22202;-46
2023/04/11 03:47:40;;;;;;;21.60;10.20;;;;;;;8.88;87.59;99034.27;107858;1308;22252;-43
2023/04/11 03:50:07;;;;;;;18.20;9.30;;;;;;;8.89;87.25;99030.37;107849;1308;22256;-43
2023/04/11 03:52:33;;;;;;;16.90;8.80;;;;;;;8.89;87.58;99028.45;107829;1308;22229;-43
2023/04/11 03:54:58;;;;;;;17.80;8.70;;;;;;;8.91;87.40;99016.61;107869;1308;23021;-43
2023/04/11 03:57:25;;;;;;;17.20;8.70;;;;;;;8.93;87.46;99013.90;107866;1308;22667;-43
2023/04/11 03:59:51;;;;;;;14.30;8.40;;;;;;;8.94;87.40;99010.17;107848;1308;22190;-41
2023/04/11 04:02:16;;;;;;;17.10;8.60;;;;;;;8.97;87.40;99007.23;107852;1308;22448;-45
2023/04/11 04:04:45;;;;;;;13.50;8.20;;;;;;;8.98;87.09;99001.02;107835;1308;23047;-42
2023/04/11 04:07:11;;;;;;;23.80;9.10;;;;;;;9.00;87.09;99001.77;107878;1308;22292;-44
2023/04/11 04:09:37;;;;;;;22.10;9.00;;;;;;;8.99;87.12;99000.08;107858;1308;23014;-42
2023/04/11 04:12:02;;;;;;;17.60;9.70;;;;;;;8.99;87.14;99002.52;107845;1308;22449;-43
2023/04/11 04:14:28;;;;;;;18.10;8.80;;;;;;;9.02;86.95;98996.09;107831;1308;22313;-42
2023/04/11 04:16:53;;;;;;;18.60;9.40;;;;;;;9.03;86.77;98991.86;107847;1308;22244;-43
2023/04/11 04:19:18;;;;;;;15.30;8.50;;;;;;;9.04;86.70;98989.17;107849;1308;22672;-42
2023/04/11 04:21:44;;;;;;;13.70;8.50;;;;;;;9.05;86.72;98985.11;107810;1308;22246;-41
2023/04/11 04:24:11;;;;;;;19.30;8.50;;;;;;;9.09;86.59;98978.80;107837;1308;23473;-41
2023/04/11 04:26:38;;;;;;;16.30;9.10;;;;;;;9.07;86.71;98974.65;107857;1308;22346;-42
2023/04/11 04:29:03;;;;;;;13.60;9.20;;;;;;;9.09;86.47;98978.56;107871;1308;22461;-43
2023/04/11 04:31:32;;;;;;;14.60;9.20;;;;;;;9.10;86.32;98978.70;107850;1308;22430;-43
2023/04/11 04:34:02;;;;;;;16.90;8.80;;;;;;;9.12;86.19;98975.61;107861;1308;22194;-42
2023/04/11 04:36:28;;;;;;;19.90;9.20;;;;;;;9.10;86.09;98971.74;107854;1308;22198;-41
2023/04/11 04:38:56;;;;;;;12.40;9.20;;;;;;;9.12;86.06;98970.76;107879;1308;22500;-42
2023/04/11 04:41:22;;;;;;;16.90;9.10;;;;;;;9.13;86.10;98971.35;107918;1307;22299;-42
2023/04/11 04:43:47;;;;;;;15.60;9.30;;;;;;;9.14;86.02;98973.23;107915;1307;22962;-43
2023/04/11 04:46:13;;;;;;;19.40;9.40;;;;;;;9.13;86.06;98968.95;107917;1307;23097;-41
2023/04/11 04:48:38;;;;;;;15.60;9.80;;;;;;;9.14;85.92;98966.94;107919;1307;23194;-40
2023/04/11 04:51:05;;;;;;;16.00;9.30;;;;;;;9.14;86.00;98958.21;107902;1308;22242;-41
2023/04/11 04:53:33;;;;;;;15.40;9.60;;;;;;;9.15;85.99;98957.13;107895;1307;22853;-42
2023/04/11 04:55:59;;;;;;;18.80;10.00;;;;;;;9.14;85.96;98953.81;107912;1307;22466;-40
2023/04/11 04:58:26;;;;;;;16.70;10.10;;;;;;;9.13;86.04;98954.92;107896;1307;22883;-42
2023/04/11 05:00:54;;;;;;;14.40;10.00;;;;;;;9.14;85.94;98951.88;107902;1307;22972;-41
2023/04/11 05:03:21;;;;;;;14.60;10.10;;;;;;;9.15;86.11;98951.00;107897;1307;22134;-41
2023/04/11 05:05:46;;;;;;;21.20;11.00;;;;;;;9.18;85.82;98947.99;107890;1307;22230;-41
2023/04/11 05:08:12;;;;;;;29.80;10.40;;;;;;;9.19;85.93;98945.53;107890;1308;22227;-44
2023/04/11 05:10:42;;;;;;;13.20;10.20;;;;;;;9.20;85.88;98948.05;107893;1307;22310;-42
2023/04/11 05:13:08;;;;;;;15.60;9.40;;;;;;;9.21;85.92;98943.14;107452;1307;23059;-41
2023/04/11 05:15:33;;;;;;;16.90;9.90;;;;;;;9.26;85.88;98946.23;107887;1308;22177;-42
2023/04/11 05:17:58;;;;;;;18.20;10.00;;;;;;;9.27;85.99;98944.02;107892;1307;22230;-42
2023/04/11 05:20:25;;;;;;;18.50;9.80;;;;;;;9.30;85.73;98940.04;107870;1307;22245;-42
2023/04/11 05:22:52;;;;;;;17.20;10.30;;;;;;;9.35;85.34;98938.18;107899;1307;23074;-43
2023/04/11 05:25:17;;;;;;;15.50;10.10;;;;;;;9.36;85.15;98932.52;107901;1307;22064;-42
2023/04/11 05:27:42;;;;;;;18.90;9.00;;;;;;;9.37;85.06;98925.63;107906;1308;22250;-43
2023/04/11 05:30:09;;;;;;;17.00;10.80;;;;;;;9.35;85.00;98923.30;107880;1307;22409;-42
2023/04/11 05:32:34;;;;;;;20.60;10.60;;;;;;;9.35;85.03;98919.11;107869;1308;22221;-44
2023/04/11 05:34:59;;;;;;;17.00;10.20;;;;;;;9.33;85.19;98914.15;107909;1308;22243;-45
2023/04/11 05:37:25;;;;;;;17.70;10.10;;;;;;;9.30;85.28;98908.69;107894;1308;23314;-42
2023/04/11 05:39:51;;;;;;;15.40;9.90;;;;;;;9.34;85.05;98906.90;107896;1307;25377;-42
2023/04/11 05:42:16;;;;;;;18.30;10.70;;;;;;;9.33;85.08;98903.42;107901;1308;22220;-41
2023/04/11 05:44:42;;;;;;;17.50;10.00;;;;;;;9.37;85.26;98899.23;107916;1308;22397;-43
2023/04/11 05:47:07;;;;;;;20.30;10.90;;;;;;;9.37;84.90;98895.33;107919;1308;22400;-43
2023/04/11 05:49:33;;;;;;;19.30;10.20;;;;;;;9.37;84.72;98893.77;107886;1308;22999;-42
2023/04/11 05:51:58;;;;;;;13.10;9.30;;;;;;;9.42;84.57;98894.02;107902;1308;23308;-44
2023/04/11 05:54:34;;;;;;;15.40;9.40;;;;;;;9.44;84.47;98894.28;107872;1308;22253;-44
2023/04/11 05:57:01;;;;;;;26.10;10.00;;;;;;;9.46;84.56;98897.15;107724;1308;22218;-46
2023/04/11 05:59:30;;;;;;;19.70;9.50;;;;;;;9.48;84.53;98890.36;107912;1308;22412;-43
2023/04/11 06:01:56;;;;;;;20.10;10.20;;;;;;;9.50;84.33;98884.45;107884;1308;22396;-42
2023/04/11 06:04:21;;;;;;;25.50;9.70;;;;;;;9.52;84.41;98875.59;107895;1308;22413;-40
2023/04/11 06:06:46;;;;;;;74.70;13.50;;;;;;;9.56;84.35;98872.42;107899;1308;23226;-40
2023/04/11 06:09:12;;;;;;;33.30;10.70;;;;;;;9.55;84.27;98869.83;107898;1308;22765;-43
2023/04/11 06:11:37;;;;;;;18.50;10.10;;;;;;;9.57;84.29;98869.84;107901;1308;22406;-41
2023/04/11 06:14:03;;;;;;;19.80;10.50;;;;;;;9.62;84.07;98869.44;107902;1308;22394;-43
2023/04/11 06:16:30;;;;;;;18.40;10.30;;;;;;;9.62;83.83;98869.96;107900;1308;23009;-43
2023/04/11 06:18:55;;;;;;;16.40;10.40;;;;;;;9.69;83.68;98866.41;107895;1307;23125;-42
2023/04/11 06:21:21;;;;;;;25.20;9.90;;;;;;;9.72;83.46;98867.09;107905;1308;23147;-43
2023/04/11 06:23:47;;;;;;;29.70;10.90;;;;;;;9.77;83.22;98866.11;107880;1308;22274;-43
2023/04/11 06:26:12;;;;;;;18.80;10.40;;;;;;;9.82;83.29;98866.68;107899;1308;22478;-43
2023/04/11 06:28:37;;;;;;;24.40;11.20;;;;;;;9.90;82.95;98863.59;107902;1308;22206;-41
2023/04/11 06:31:03;;;;;;;18.20;9.80;;;;;;;9.97;82.66;98861.08;107901;1308;22201;-41
2023/04/11 06:33:28;;;;;;;18.10;8.70;;;;;;;9.99;82.22;98864.14;107890;1308;23211;-41
2023/04/11 06:35:54;;;;;;;14.40;8.90;;;;;;;10.07;81.76;98857.90;107899;1308;22495;-43
2023/04/11 06:38:19;;;;;;;21.50;9.50;;;;;;;10.07;81.62;98855.27;107910;1308;23317;-42
2023/04/11 06:40:45;;;;;;;17.30;10.10;;;;;;;10.10;81.44;98851.38;107881;1308;22448;-43
2023/04/11 06:43:10;;;;;;;15.70;9.50;;;;;;;10.15;81.36;98851.92;107898;1308;22254;-42
2023/04/11 06:45:35;;;;;;;32.90;12.10;;;;;;;10.20;81.18;98851.66;107892;1308;23206;-41
2023/04/11 06:48:01;;;;;;;17.10;10.00;;;;;;;10.27;81.28;98854.75;107690;1308;22505;-41
2023/04/11 06:50:30;;;;;;;36.80;11.60;;;;;;;10.36;81.00;98854.00;107885;1308;22469;-43
2023/04/11 06:52:57;;;;;;;20.00;9.90;;;;;;;10.36;80.47;98854.36;106924;1308;22578;-39
2023/04/11 06:55:22;;;;;;;22.40;9.70;;;;;;;10.45;80.28;98852.10;106796;1308;22559;-38
2023/04/11 06:57:48;;;;;;;14.80;9.40;;;;;;;10.51;80.25;98850.48;107367;1308;22214;-42
2023/04/11 07:00:15;;;;;;;17.20;8.60;;;;;;;10.52;79.82;98844.80;107883;1308;22418;-42
2023/04/11 07:02:43;;;;;;;73.00;12.90;;;;;;;10.62;80.02;98843.29;107891;1308;22421;-40
2023/04/11 07:05:09;;;;;;;24.70;8.60;;;;;;;10.72;79.68;98837.77;107560;1308;22469;-42
2023/04/11 07:07:34;;;;;;;17.80;9.30;;;;;;;10.84;79.44;98832.63;107898;1308;22303;-42
2023/04/11 07:09:59;;;;;;;24.30;9.70;;;;;;;10.93;78.96;98828.41;107910;1308;22429;-43
2023/04/11 07:12:25;;;;;;;28.50;10.80;;;;;;;11.02;78.83;98826.53;107902;1308;22232;-44
2023/04/11 07:14:50;;;;;;;23.40;9.50;;;;;;;11.19;78.80;98823.71;107913;1308;22229;-44
2023/04/11 07:17:15;;;;;;;11.70;8.50;;;;;;;11.33;78.22;98820.02;107903;1308;22579;-41
2023/04/11 07:19:40;;;;;;;68.70;11.20;;;;;;;11.43;77.72;98808.80;107875;1308;22175;-41
2023/04/11 07:22:06;;;;;;;33.90;9.10;;;;;;;11.58;77.10;98810.30;107909;1308;22708;-44
2023/04/11 07:24:32;;;;;;;20.00;8.80;;;;;;;11.63;76.09;98808.16;107954;1306;22416;-41
2023/04/11 07:26:57;;;;;;;12.90;7.80;;;;;;;11.73;75.61;98806.60;107963;1307;22201;-42
2023/04/11 07:29:23;;;;;;;44.30;9.70;;;;;;;11.84;75.71;98803.09;107974;1307;22266;-44
2023/04/11 07:31:50;;;;;;;17.90;8.30;;;;;;;11.94;75.31;98798.25;107979;1307;23173;-43
2023/04/11 07:34:16;;;;;;;139.80;14.20;;;;;;;12.05;74.89;98795.48;107973;1307;22486;-42
2023/04/11 07:36:41;;;;;;;30.20;9.50;;;;;;;12.22;74.70;98796.25;107982;1307;22465;-42
2023/04/11 07:39:08;;;;;;;23.10;8.00;;;;;;;12.31;73.11;98793.56;107940;1307;22302;-44
2023/04/11 07:41:35;;;;;;;39.60;8.40;;;;;;;12.44;73.09;98788.77;107985;1307;22339;-43
2023/04/11 07:44:01;;;;;;;25.20;8.60;;;;;;;12.55;72.45;98786.08;107980;1307;22424;-43
2023/04/11 07:46:26;;;;;;;57.70;9.10;;;;;;;12.65;71.92;98781.81;107961;1307;22243;-42
2023/04/11 07:48:51;;;;;;;46.50;9.30;;;;;;;12.76;70.57;98782.63;107972;1307;22216;-44
2023/04/11 07:51:17;;;;;;;43.10;9.70;;;;;;;12.82;69.36;98778.84;107967;1307;22223;-44
2023/04/11 07:53:43;;;;;;;21.90;7.10;;;;;;;12.93;69.97;98773.14;107970;1307;22766;-44
2023/04/11 07:56:09;;;;;;;43.70;8.90;;;;;;;12.99;69.29;98770.18;107985;1307;22214;-43
2023/04/11 07:58:34;;;;;;;8.10;5.90;;;;;;;12.98;68.37;98760.77;107955;1307;22349;-42
2023/04/11 08:01:01;;;;;;;9.90;6.20;;;;;;;12.97;68.49;98755.36;107965;1307;22441;-42
2023/04/11 08:03:26;;;;;;;11.40;6.00;;;;;;;12.95;68.10;98747.41;107982;1307;22410;-44
2023/04/11 08:05:53;;;;;;;15.20;6.50;;;;;;;13.04;68.43;98740.80;107414;1307;24831;-41
2023/04/11 08:08:18;;;;;;;17.10;6.30;;;;;;;13.18;69.36;98738.71;106839;1307;22557;-38
2023/04/11 08:10:44;;;;;;;11.70;5.90;;;;;;;13.29;69.24;98735.64;107529;1307;22468;-38
2023/04/11 08:13:09;;;;;;;10.30;6.20;;;;;;;13.33;68.66;98729.86;107980;1307;22454;-39
2023/04/11 08:15:36;;;;;;;12.30;5.80;;;;;;;13.41;68.35;98726.95;107966;1307;22425;-41
2023/04/11 08:18:09;;;;;;;9.60;5.80;;;;;;;13.50;68.54;98728.58;107472;1307;22370;-40
2023/04/11 08:20:34;;;;;;;12.30;6.30;;;;;;;13.62;68.62;98725.01;107976;1307;22274;-40
2023/04/11 08:23:04;;;;;;;10.70;5.70;;;;;;;13.73;67.93;98725.39;107808;1308;22424;-40
2023/04/11 08:25:31;;;;;;;13.90;5.90;;;;;;;13.78;67.47;98724.66;107804;1308;22409;-40
2023/04/11 08:27:56;;;;;;;7.50;5.20;;;;;;;13.78;66.99;98725.36;107766;1308;22159;-39
2023/04/11 08:30:22;;;;;;;9.10;4.90;;;;;;;13.77;66.71;98720.14;107806;1308;22438;-40
2023/04/11 08:32:47;;;;;;;11.20;5.00;;;;;;;13.81;66.85;98712.27;107809;1308;22265;-40
2023/04/11 08:35:12;;;;;;;22.00;6.10;;;;;;;13.87;66.46;98708.45;107801;1301;23363;-40
2023/04/11 08:37:38;;;;;;;29.90;7.30;;;;;;;13.96;66.15;98706.73;107883;1301;22206;-40
2023/04/11 08:40:07;;;;;;;13.40;5.40;;;;;;;14.08;65.99;98702.10;107696;1301;22497;-40
2023/04/11 08:42:33;;;;;;;15.50;5.60;;;;;;;14.13;64.69;98700.46;107834;1307;22219;-40
2023/04/11 08:45:03;;;;;;;14.50;5.10;;;;;;;14.26;63.97;98699.98;107902;1299;23055;-40
2023/04/11 08:47:29;;;;;;;14.60;4.90;;;;;;;14.38;63.13;98696.36;107937;1302;22899;-39
2023/04/11 08:49:58;;;;;;;9.20;5.20;;;;;;;14.56;63.22;98685.93;107847;1308;22230;-39
2023/04/11 08:52:23;;;;;;;13.40;4.90;;;;;;;14.72;61.84;98679.85;107837;1308;22246;-40
2023/04/11 08:54:56;;;;;;;9.80;4.10;;;;;;;14.79;60.80;98678.08;107825;1308;22261;-39
2023/04/11 08:57:26;;;;;;;7.40;4.80;;;;;;;14.89;60.33;98680.06;107842;1308;22699;-44
2023/04/11 08:59:58;;;;;;;23.70;5.10;;;;;;;14.88;58.72;98684.67;107841;1308;22479;-42
2023/04/11 09:02:24;;;;;;;12.40;4.50;;;;;;;14.78;57.17;98683.75;107854;1307;22232;-41
2023/04/11 09:04:50;;;;;;;10.60;4.00;;;;;;;14.90;57.79;98681.16;107900;1289;22430;-42
2023/04/11 09:07:15;;;;;;;18.00;3.80;;;;;;;15.03;57.30;98675.64;107889;1305;22355;-41
2023/04/11 09:09:42;;;;;;;18.40;3.60;;;;;;;15.06;56.00;98674.60;107881;1305;22990;-41
2023/04/11 09:12:07;;;;;;;17.20;4.70;;;;;;;15.09;55.27;98677.02;107889;1308;22227;-44
2023/04/11 09:14:33;;;;;;;14.70;5.30;;;;;;;15.19;55.17;98674.87;107691;1307;22225;-42
2023/04/11 09:17:05;;;;;;;4.70;3.00;;;;;;;15.40;54.96;98677.17;107889;1307;22421;-43
2023/04/11 09:19:32;;;;;;;5.20;3.30;;;;;;;15.63;53.16;98675.41;107827;1305;22396;-44
2023/04/11 09:21:59;;;;;;;;;;;;;;;15.79;52.61;98668.44;107915;1304;22435;-44
2023/04/11 09:24:25;;;;;;;4.40;3.10;;;;;;;16.02;52.11;98666.73;107919;1307;22017;-44
2023/04/11 09:27:14;;;;;;;7.30;2.30;;;;;;;16.34;51.79;98668.70;107826;1307;22525;-42
2023/04/11 09:29:42;;;;;;;17.20;3.00;;;;;;;16.62;51.17;98668.84;107926;1302;23094;-40
2023/04/11 09:32:28;;;;;;;5.10;2.40;;;;;;;16.74;50.59;98666.86;107941;1301;22212;-46
2023/04/11 09:35:17;;;;;;;8.30;2.10;;;;;;;16.87;49.11;98660.59;107898;1307;22476;-42
2023/04/11 09:37:44;;;;;;;9.70;2.90;;;;;;;16.93;48.44;98658.00;107422;1308;22241;-41
2023/04/11 09:40:10;;;;;;;6.90;2.00;;;;;;;17.02;48.73;98651.80;107849;1308;22230;-42
2023/04/11 09:42:36;;;;;;;2.10;1.90;;;;;;;17.04;47.90;98646.70;107806;1302;22469;-45
2023/04/11 09:45:01;;;;;;;3.20;1.70;;;;;;;17.04;47.31;98645.23;107849;1305;22455;-42
2023/04/11 09:47:31;;;;;;;6.70;2.40;;;;;;;16.98;47.36;98635.58;107923;1302;22246;-43
2023/04/11 09:49:59;;;;;;;9.30;2.50;;;;;;;17.12;47.41;98627.73;107859;1308;22351;-45
2023/04/11 09:52:25;;;;;;;4.70;2.20;;;;;;;17.17;48.11;98622.77;107906;1305;22395;-45
2023/04/11 09:54:52;;;;;;;5.00;2.40;;;;;;;17.23;47.55;98624.34;107887;1302;22365;-43
2023/04/11 09:57:21;;;;;;;5.60;2.30;;;;;;;17.46;47.23;98619.02;107875;1307;22978;-41
2023/04/11 09:59:47;;;;;;;11.00;2.70;;;;;;;17.54;45.99;98620.42;107877;1301;22438;-43
2023/04/11 10:02:12;;;;;;;12.30;2.50;;;;;;;17.62;45.46;98616.25;107882;1305;23277;-43
2023/04/11 10:04:39;;;;;;;3.80;2.40;;;;;;;17.71;46.41;98611.52;107686;1307;22373;-46
2023/04/11 10:07:10;;;;;;;14.70;2.40;;;;;;;17.83;46.42;98611.63;107900;1305;22484;-48
2023/04/11 10:09:38;;;;;;;13.20;2.80;;;;;;;18.20;46.52;98602.95;107891;1305;22630;-46
2023/04/11 10:12:03;;;;;;;6.20;2.10;;;;;;;18.54;44.09;98595.51;107811;1308;22436;-47
2023/04/11 10:14:35;;;;;;;8.40;2.50;;;;;;;19.18;43.85;98592.16;107792;1307;22597;-40
2023/04/11 10:17:14;;;;;;;2.70;1.90;;;;;;;19.49;41.29;98586.74;107759;1305;22412;-45
2023/04/11 10:19:39;;;;;;;24.60;2.90;;;;;;;19.91;40.31;98592.04;107777;1304;22442;-43
2023/04/11 10:22:05;;;;;;;5.30;2.10;;;;;;;20.26;38.72;98584.83;107899;1308;22727;-43
2023/04/11 10:24:31;;;;;;;4.40;2.80;;;;;;;20.04;38.15;98579.31;107917;1302;22361;-50
2023/04/11 10:26:58;;;;;;;4.80;2.90;;;;;;;20.33;38.36;98574.27;107856;1302;23105;-42
2023/04/11 10:29:32;;;;;;;5.90;2.70;;;;;;;20.22;38.66;98569.23;107852;1299;22450;-49
2023/04/11 10:32:11;;;;;;;7.80;2.80;;;;;;;20.17;38.71;98569.56;107796;1307;22453;-44
2023/04/11 10:34:37;;;;;;;6.60;3.30;;;;;;;20.12;38.38;98565.25;107867;1304;23084;-48
2023/04/11 10:37:07;;;;;;;3.70;3.10;;;;;;;20.01;38.34;98563.41;107879;1308;22277;-49
2023/04/11 10:39:53;;;;;;;7.60;4.00;;;;;;;19.98;38.64;98559.30;107808;1307;22316;-46
2023/04/11 10:42:32;;;;;;;3.50;2.00;;;;;;;20.13;38.20;98554.11;107822;1304;22569;-44
2023/04/11 10:45:26;;;;;;;8.30;2.20;;;;;;;20.43;38.40;98553.10;107868;1302;22442;-41
2023/04/11 10:47:55;;;;;;;10.90;2.70;;;;;;;20.58;37.59;98547.42;107845;1302;22511;-46
2023/04/11 10:50:27;;;;;;;10.90;2.60;;;;;;;20.63;37.25;98542.73;107858;1305;22233;-43
2023/04/11 10:53:00;;;;;;;5.30;2.30;;;;;;;20.70;36.86;98539.28;107809;1308;22984;-44
2023/04/11 10:55:27;;;;;;;8.50;2.80;;;;;;;20.70;36.77;98537.95;107843;1308;22360;-43
2023/04/11 10:58:15;;;;;;;3.00;2.50;;;;;;;20.97;36.41;98534.23;107794;1305;22409;-44
2023/04/11 11:00:47;;;;;;;3.30;2.50;;;;;;;21.14;36.12;98530.93;107806;1308;22976;-45
2023/04/11 11:03:16;;;;;;;6.10;2.70;;;;;;;21.47;35.86;98530.45;107912;1307;23456;-48
2023/04/11 11:05:41;;;;;;;4.90;2.50;;;;;;;21.84;34.79;98526.63;107804;1308;22239;-44
2023/04/11 11:08:07;;;;;;;7.20;2.80;;;;;;;22.30;34.33;98528.30;107800;1308;22239;-47
2023/04/11 11:10:41;;;;;;;9.20;2.70;;;;;;;22.57;33.49;98526.26;107821;1305;22407;-44
2023/04/11 11:13:07;;;;;;;4.00;2.30;;;;;;;22.94;33.10;98520.12;107819;1305;22212;-42
2023/04/11 11:15:37;;;;;;;3.40;1.80;;;;;;;23.16;32.98;98518.27;107824;1308;22367;-44
2023/04/11 11:18:09;;;;;;;4.50;2.30;;;;;;;23.04;32.50;98515.45;107826;1308;22241;-47
2023/04/11 11:20:36;;;;;;;3.20;2.30;;;;;;;22.55;32.85;98517.36;107874;1307;22242;-41
2023/04/11 11:23:04;;;;;;;5.20;2.00;;;;;;;22.60;33.10;98513.28;107840;1308;22287;-46
2023/04/11 11:25:30;;;;;;;4.20;2.10;;;;;;;22.26;33.62;98514.49;107921;1308;22241;-43
2023/04/11 11:28:02;;;;;;;4.90;2.20;;;;;;;22.22;33.05;98509.64;107822;1307;22342;-48
2023/04/11 11:30:27;;;;;;;6.40;2.00;;;;;;;22.09;33.65;98504.66;107716;1307;23011;-46
2023/04/11 11:32:53;;;;;;;3.70;2.00;;;;;;;21.73;32.99;98508.47;107932;1307;23352;-41
2023/04/11 11:35:18;;;;;;;6.30;1.70;;;;;;;21.74;32.64;98502.95;107860;1308;22393;-47
2023/04/11 11:37:45;;;;;;;7.60;2.10;;;;;;;21.90;31.54;98503.77;107988;1286;22413;-45
2023/04/11 11:40:13;;;;;;;13.10;2.30;;;;;;;21.65;30.85;98504.48;107852;1307;22321;-41
2023/04/11 11:42:39;;;;;;;4.40;2.00;;;;;;;22.08;30.30;98498.15;107875;1308;23089;-41
2023/04/11 11:45:15;;;;;;;4.40;1.90;;;;;;;22.12;30.47;98499.66;107934;1307;22233;-46
2023/04/11 11:47:47;;;;;;;2.00;1.50;;;;;;;22.19;30.06;98498.34;107833;1307;22419;-45
2023/04/11 11:50:30;;;;;;;6.60;2.80;;;;;;;22.60;30.42;98493.21;107913;1308;22407;-44
2023/04/11 11:53:11;;;;;;;14.50;2.90;;;;;;;23.44;29.51;98495.38;107917;1307;22260;-47
2023/04/11 11:55:37;;;;;;;7.70;1.90;;;;;;;23.79;28.48;98498.14;107839;1307;22263;-42
2023/04/11 11:58:02;;;;;;;12.70;1.60;;;;;;;24.03;28.51;98494.96;107934;1308;22901;-45
2023/04/11 12:00:30;;;;;;;7.60;1.80;;;;;;;23.36;28.03;98495.77;107819;1301;22245;-44
2023/04/11 12:02:58;;;;;;;2.80;1.40;;;;;;;23.34;28.19;98493.68;107813;1302;22222;-43
2023/04/11 12:05:28;;;;;;;3.20;1.60;;;;;;;23.57;28.21;98484.69;107947;1307;22384;-46
2023/04/11 12:07:55;;;;;;;11.60;1.90;;;;;;;24.19;28.09;98477.91;107855;1302;22239;-43
2023/04/11 12:10:21;;;;;;;2.40;1.50;;;;;;;24.79;27.25;98481.88;107905;1308;22238;-44
2023/04/11 12:12:50;;;;;;;4.00;1.60;;;;;;;24.83;26.54;98485.19;107427;1308;22270;-48
2023/04/11 12:15:21;;;;;;;7.90;2.70;;;;;;;24.53;26.38;98475.11;107934;1307;22210;-43
2023/04/11 12:17:48;;;;;;;25.30;3.90;;;;;;;24.82;26.12;98474.73;107841;1308;22236;-46
2023/04/11 12:20:14;;;;;;;10.00;3.30;;;;;;;24.76;26.29;98470.79;107845;1308;22413;-48
2023/04/11 12:22:40;;;;;;;6.80;2.60;;;;;;;24.99;26.56;98469.33;107847;1308;22217;-43
2023/04/11 12:25:10;;;;;;;9.70;2.50;;;;;;;24.76;26.09;98462.35;107833;1308;22595;-40
2023/04/11 12:27:36;;;;;;;11.10;5.20;;;;;;;25.01;26.73;98453.91;107509;1308;22439;-47
2023/04/11 12:30:03;;;;;;;4.70;2.30;;;;;;;25.31;26.77;98458.17;107828;1308;22398;-45
2023/04/11 12:32:28;;;;;;;3.40;2.10;;;;;;;25.21;26.55;98450.45;107908;1307;22264;-49
2023/04/11 12:34:54;;;;;;;6.80;2.30;;;;;;;25.49;26.19;98451.38;107872;1308;22291;-42
2023/04/11 12:37:20;;;;;;;16.50;2.70;;;;;;;26.29;25.54;98448.55;107949;1307;22398;-45
2023/04/11 12:39:45;;;;;;;3.60;2.50;;;;;;;26.64;24.37;98450.92;107852;1305;22435;-45
2023/04/11 12:42:11;;;;;;;5.20;2.40;;;;;;;26.77;24.34;98444.80;107928;1308;22971;-41
2023/04/11 12:44:36;;;;;;;4.90;3.10;;;;;;;26.81;24.09;98437.00;107892;1307;23014;-46
2023/04/11 12:47:01;;;;;;;4.90;2.50;;;;;;;26.84;24.39;98440.05;107865;1308;22425;-48
2023/04/11 12:49:27;;;;;;;7.70;2.60;;;;;;;25.72;25.25;98440.32;107948;1307;22229;-48
2023/04/11 12:51:53;;;;;;;2.70;2.30;;;;;;;26.01;25.00;98435.83;107847;1305;22315;-49
2023/04/11 12:54:18;;;;;;;3.80;2.40;;;;;;;25.83;24.70;98434.17;107930;1307;22256;-40
2023/04/11 12:56:44;;;;;;;6.10;3.60;;;;;;;26.71;24.44;98425.27;107920;1307;23131;-48
2023/04/11 12:59:09;;;;;;;6.90;3.10;;;;;;;26.95;24.35;98422.48;107855;1308;22464;-41
2023/04/11 13:01:35;;;;;;;5.50;3.30;;;;;;;27.02;23.60;98418.09;107926;1302;22180;-39
2023/04/11 13:04:01;;;;;;;8.30;4.20;;;;;;;27.19;22.98;98419.47;107853;1307;23094;-41
2023/04/11 13:06:27;;;;;;;9.60;6.10;;;;;;;27.36;22.78;98414.79;107493;1308;22265;-41
2023/04/11 13:08:52;;;;;;;4.50;2.50;;;;;;;27.55;22.95;98406.83;107886;1307;22467;-41
2023/04/11 13:11:18;;;;;;;3.30;2.50;;;;;;;27.35;22.73;98410.48;107854;1301;22195;-40
2023/04/11 13:13:43;;;;;;;14.40;2.90;;;;;;;27.75;22.75;98406.14;107910;1308;22436;-40
2023/04/11 13:16:10;;;;;;;9.90;2.70;;;;;;;27.93;22.51;98403.04;107896;1307;22233;-41
2023/04/11 13:18:35;;;;;;;;;;;;;;;27.88;22.18;98401.57;107907;1308;22471;-41
2023/04/11 13:21:01;;;;;;;4.60;2.40;;;;;;;27.93;22.50;98395.16;107846;1308;22280;-42
2023/04/11 13:23:26;;;;;;;8.70;2.60;;;;;;;26.99;22.66;98395.41;107939;1302;22360;-45
2023/04/11 13:25:52;;;;;;;6.50;2.60;;;;;;;26.30;23.75;98384.88;107850;1307;22263;-44
2023/04/11 13:28:17;;;;;;;9.90;3.50;;;;;;;25.21;24.25;98384.61;107875;1307;23005;-46
2023/04/11 13:30:42;;;;;;;6.20;3.00;;;;;;;23.67;26.32;98383.48;107880;1304;23359;-46
2023/04/11 13:33:07;;;;;;;6.80;3.30;;;;;;;22.69;27.60;98380.63;107847;1302;22456;-43
2023/04/11 13:35:33;;;;;;;7.00;3.10;;;;;;;22.33;28.33;98378.80;107821;1307;22617;-40
2023/04/11 13:37:58;;;;;;;5.50;4.00;;;;;;;21.53;29.61;98379.30;107908;1308;22267;-41
2023/04/11 13:40:23;;;;;;;7.50;2.50;;;;;;;20.98;30.47;98378.17;107812;1302;25077;-42
2023/04/11 13:42:49;;;;;;;3.10;2.60;;;;;;;20.34;31.53;98372.84;107896;1308;22226;-43
2023/04/11 13:45:14;;;;;;;17.70;9.40;;;;;;;20.14;32.27;98372.88;107953;1307;23188;-44
2023/04/11 13:47:40;;;;;;;11.20;7.00;;;;;;;19.86;32.90;98364.88;107831;1307;22246;-44
2023/04/11 13:50:07;;;;;;;5.30;3.50;;;;;;;19.80;33.46;98365.56;107929;1305;22961;-40
2023/04/11 13:52:33;;;;;;;3.50;3.20;;;;;;;19.57;33.54;98357.67;107898;1307;23088;-44
2023/04/11 13:54:59;;;;;;;5.80;4.70;;;;;;;19.56;33.85;98357.08;107454;1307;22237;-42
2023/04/11 13:57:27;;;;;;;10.70;3.60;;;;;;;19.63;33.67;98349.78;107931;1307;22360;-43
2023/04/11 13:59:52;;;;;;;5.40;3.50;;;;;;;19.55;34.18;98347.96;107865;1307;22353;-42
2023/04/11 14:02:18;;;;;;;9.00;3.20;;;;;;;19.44;35.00;98340.58;107847;1307;22246;-43
2023/04/11 14:04:43;;;;;;;4.20;3.10;;;;;;;19.37;34.54;98338.46;107949;1307;22503;-44
2023/04/11 14:07:09;;;;;;;4.70;3.80;;;;;;;19.44;34.58;98336.02;107839;1308;22217;-43
2023/04/11 14:09:35;;;;;;;8.50;3.20;;;;;;;19.47;35.01;98331.00;107695;1305;22328;-44
2023/04/11 14:12:00;;;;;;;9.80;3.50;;;;;;;19.33;35.28;98328.95;107928;1307;22277;-41
2023/04/11 14:14:25;;;;;;;10.40;4.00;;;;;;;19.23;35.63;98322.45;107856;1307;23159;-44